Time;durP1;ratioP1;P1;durP2;ratioP2;P2;SDS_P1;SDS_P2;PMS_P1;PMS_P2;Temp;Humidity;BMP_temperature;BMP_pressure;BME280_temperature;BME280_humidity;BME280_pressure;Samples;Min_cycle;Max_cycle;Signal;HPM_P1;HPM_P2
2022/02/05 00:09:15;;;;;;;4.13;1.30;;;24.70;99.90;;;;;;5064417;28;20105;-76
2022/02/05 00:40:55;;;;;;;4.82;1.05;;;24.40;99.90;;;;;;5069280;28;20045;-75
2022/02/05 00:43:22;;;;;;;2.20;0.47;;;24.60;99.90;;;;;;5064514;28;20361;-75
2022/02/05 00:45:54;;;;;;;2.80;0.47;;;25.20;99.90;;;;;;5054375;28;20087;-74
2022/02/05 00:48:22;;;;;;;3.63;0.52;;;25.70;99.90;;;;;;5055187;28;20032;-76
2022/02/05 00:50:58;;;;;;;5.68;0.85;;;25.70;99.90;;;;;;5063901;28;20053;-76
2022/02/05 00:53:33;;;;;;;4.32;0.65;;;25.20;99.90;;;;;;5069038;28;20021;-75
2022/02/05 00:58:30;;;;;;;3.55;0.70;;;24.50;99.90;;;;;;5061717;28;20044;-77
2022/02/05 01:00:57;;;;;;;2.50;0.95;;;24.50;99.90;;;;;;5069026;28;20163;-75
2022/02/05 01:03:25;;;;;;;2.50;0.40;;;24.60;99.90;;;;;;5062913;28;20028;-76
2022/02/05 01:05:52;;;;;;;4.53;0.50;;;24.70;99.90;;;;;;5071062;28;20025;-74
2022/02/05 01:08:20;;;;;;;2.22;0.40;;;24.90;99.90;;;;;;5072465;28;20058;-76
2022/02/05 01:10:48;;;;;;;5.00;0.82;;;24.90;99.90;;;;;;5063407;28;20451;-75
2022/02/05 01:13:15;;;;;;;4.88;1.45;;;24.70;99.90;;;;;;5053117;28;20052;-75
2022/02/05 01:18:24;;;;;;;3.80;0.55;;;24.20;99.90;;;;;;5066412;28;20387;-73
2022/02/05 01:21:08;;;;;;;4.53;0.75;;;24.00;99.90;;;;;;5069575;28;20238;-75
2022/02/05 01:28:56;;;;;;;1.38;0.30;;;24.10;99.90;;;;;;5072203;28;20410;-73
2022/02/05 01:31:28;;;;;;;4.13;0.77;;;24.70;99.90;;;;;;5067299;28;20067;-74
2022/02/05 01:50:26;;;;;;;1.60;0.40;;;24.80;99.90;;;;;;5063014;28;20043;-75
2022/02/05 01:53:25;;;;;;;2.35;0.30;;;24.60;98.20;;;;;;5061165;28;20115;-75
2022/02/05 02:11:56;;;;;;;2.15;0.65;;;23.70;97.20;;;;;;5058772;28;20040;-76
2022/02/05 02:17:48;;;;;;;2.90;0.60;;;23.50;96.90;;;;;;5066665;28;20797;-74
2022/02/05 02:22:52;;;;;;;4.65;0.43;;;24.40;97.00;;;;;;5069247;28;20032;-75
2022/02/05 02:28:02;;;;;;;4.35;0.40;;;24.70;95.20;;;;;;5060704;28;20432;-76
2022/02/05 02:30:35;;;;;;;4.93;0.65;;;24.50;95.00;;;;;;5056971;28;20024;-74
2022/02/05 02:33:15;;;;;;;3.78;0.47;;;24.30;95.20;;;;;;5067646;28;20028;-76
2022/02/05 02:35:48;;;;;;;2.72;0.40;;;23.90;94.10;;;;;;5068539;28;20511;-73
2022/02/05 02:38:19;;;;;;;2.72;0.38;;;23.90;94.00;;;;;;5069997;28;20059;-77
2022/02/05 02:40:59;;;;;;;4.18;0.90;;;24.00;93.80;;;;;;5068888;28;20052;-76
2022/02/05 02:43:29;;;;;;;0.73;0.20;;;24.30;94.00;;;;;;5050609;28;20029;-75
2022/02/05 02:45:57;;;;;;;1.70;0.40;;;25.30;93.60;;;;;;5051506;28;20024;-75
2022/02/05 02:48:24;;;;;;;0.88;0.20;;;26.20;92.90;;;;;;5070219;28;20028;-74
2022/02/05 02:59:05;;;;;;;2.50;0.30;;;27.60;88.20;;;;;;5054510;28;20013;-76
2022/02/05 03:01:36;;;;;;;2.00;0.20;;;27.60;89.50;;;;;;5055481;28;20051;-75
2022/02/05 03:04:03;;;;;;;2.75;0.20;;;27.60;87.80;;;;;;5058930;28;20013;-75
2022/02/05 03:06:30;;;;;;;2.10;0.30;;;27.40;87.70;;;;;;5063140;28;20044;-77
2022/02/05 03:08:58;;;;;;;2.47;0.77;;;27.70;87.90;;;;;;5062809;28;20065;-77
2022/02/05 03:11:25;;;;;;;0.40;0.13;;;27.60;86.30;;;;;;5054216;28;20402;-76
2022/02/05 03:13:52;;;;;;;1.98;0.20;;;27.50;86.50;;;;;;5069149;28;20120;-76
2022/02/05 03:16:25;;;;;;;1.00;0.10;;;27.80;85.90;;;;;;5061297;28;20039;-78
2022/02/05 03:21:26;;;;;;;1.02;0.20;;;28.00;82.60;;;;;;5053719;28;20044;-75
2022/02/05 03:23:53;;;;;;;1.35;0.10;;;28.00;82.40;;;;;;5051073;28;21540;-76
2022/02/05 03:26:21;;;;;;;0.57;0.10;;;28.30;82.60;;;;;;5063681;28;20024;-76
2022/02/05 03:28:48;;;;;;;1.58;0.20;;;28.60;83.10;;;;;;5057629;28;20062;-78
2022/02/05 03:31:15;;;;;;;1.35;0.10;;;28.70;82.80;;;;;;5062275;28;20094;-74
2022/02/05 03:33:42;;;;;;;0.43;0.10;;;28.60;80.80;;;;;;5064448;28;20041;-74
2022/02/05 03:36:10;;;;;;;1.35;0.10;;;28.60;79.70;;;;;;5053662;28;20110;-76
2022/02/05 03:38:37;;;;;;;1.30;1.10;;;28.50;80.90;;;;;;5068880;28;20161;-77
2022/02/05 03:41:04;;;;;;;3.03;0.20;;;28.60;82.80;;;;;;5055477;28;20069;-77
2022/02/05 03:43:32;;;;;;;1.13;0.20;;;28.20;78.70;;;;;;5068260;28;20033;-76
2022/02/05 03:45:59;;;;;;;1.40;0.10;;;28.40;79.30;;;;;;5066301;28;20101;-76
2022/02/05 03:48:26;;;;;;;1.15;0.20;;;28.50;78.80;;;;;;5069088;28;20036;-75
2022/02/05 03:50:54;;;;;;;1.38;0.10;;;28.40;78.90;;;;;;5068370;28;20351;-76
2022/02/05 03:53:21;;;;;;;2.35;0.20;;;28.50;78.60;;;;;;5062463;28;20028;-76
2022/02/05 03:55:49;;;;;;;0.10;0.00;;;28.60;79.70;;;;;;5066964;28;20463;-75
2022/02/05 03:58:16;;;;;;;1.30;0.10;;;28.80;78.50;;;;;;5066466;28;20056;-75
2022/02/05 04:00:43;;;;;;;2.50;0.40;;;29.00;79.00;;;;;;5056153;28;20036;-75
2022/02/05 04:03:11;;;;;;;0.43;0.10;;;29.20;79.20;;;;;;5061103;28;20388;-75
2022/02/05 04:05:39;;;;;;;4.20;0.43;;;29.30;76.90;;;;;;5070488;28;20025;-74
2022/02/05 04:08:09;;;;;;;1.30;0.20;;;29.40;77.00;;;;;;5072936;28;20078;-77
2022/02/05 04:10:47;;;;;;;0.30;0.20;;;29.40;76.20;;;;;;5053829;28;20074;-73
2022/02/05 04:16:22;;;;;;;1.00;0.20;;;29.30;77.40;;;;;;5068235;28;20394;-77
2022/02/05 04:18:58;;;;;;;1.00;0.13;;;29.10;77.00;;;;;;5060098;28;20037;-77
2022/02/05 04:21:25;;;;;;;0.82;0.10;;;29.00;76.50;;;;;;5071568;28;20020;-76
2022/02/05 04:23:53;;;;;;;1.05;0.10;;;29.10;76.00;;;;;;5072036;28;20033;-76
2022/02/05 04:26:21;;;;;;;1.75;0.20;;;29.20;74.50;;;;;;5065727;28;20048;-76
2022/02/05 04:28:49;;;;;;;1.17;0.22;;;29.10;75.40;;;;;;5070302;28;20025;-75
2022/02/05 04:31:16;;;;;;;1.42;0.35;;;29.10;75.50;;;;;;5071742;28;20052;-73
2022/02/05 04:33:44;;;;;;;2.80;0.30;;;29.20;78.10;;;;;;5073057;28;20017;-76
2022/02/05 04:36:12;;;;;;;0.88;0.10;;;29.10;77.40;;;;;;5067778;28;20048;-76
2022/02/05 04:38:43;;;;;;;2.10;0.25;;;28.70;76.70;;;;;;5069316;28;20028;-75
2022/02/05 04:41:22;;;;;;;1.48;0.10;;;28.40;77.30;;;;;;5067003;28;20051;-76
2022/02/05 04:46:57;;;;;;;0.80;0.28;;;28.80;78.10;;;;;;5056629;28;20064;-76
2022/02/05 04:49:39;;;;;;;2.55;0.70;;;29.10;79.80;;;;;;5072847;28;20037;-74
2022/02/05 04:52:27;;;;;;;1.02;0.30;;;29.30;78.60;;;;;;5064870;28;20119;-75
2022/02/05 04:55:37;;;;;;;0.57;0.38;;;29.30;79.30;;;;;;5072686;28;20029;-75
2022/02/05 04:58:12;;;;;;;2.47;0.30;;;28.70;78.60;;;;;;5070676;28;20037;-75
2022/02/05 05:03:32;;;;;;;2.95;0.75;;;27.10;85.80;;;;;;5068392;28;20033;-77
2022/02/05 05:08:40;;;;;;;1.40;0.82;;;25.00;92.30;;;;;;5056882;28;20033;-77
2022/02/05 05:21:50;;;;;;;2.08;0.30;;;23.60;93.80;;;;;;5070771;28;20108;-78
2022/02/05 05:24:17;;;;;;;1.92;1.05;;;23.70;93.70;;;;;;5071865;28;20024;-77
2022/02/05 05:26:45;;;;;;;1.55;0.57;;;23.60;93.90;;;;;;5067054;28;20024;-77
2022/02/05 05:29:12;;;;;;;1.35;0.40;;;23.50;94.30;;;;;;5067428;28;20476;-78
2022/02/05 05:31:39;;;;;;;1.63;0.80;;;23.40;95.40;;;;;;5063617;28;20041;-77
2022/02/05 05:34:07;;;;;;;1.35;0.30;;;23.10;96.40;;;;;;5065117;28;20028;-78
2022/02/05 05:36:34;;;;;;;4.40;1.17;;;22.80;97.00;;;;;;5054942;28;20033;-75
2022/02/05 05:39:02;;;;;;;3.83;1.00;;;22.40;97.40;;;;;;5068660;28;20024;-75
2022/02/05 05:41:31;;;;;;;7.30;0.73;;;22.20;97.90;;;;;;5060627;28;20135;-77
2022/02/05 05:44:14;;;;;;;4.78;0.38;;;22.10;98.60;;;;;;5071009;28;20040;-75
2022/02/05 05:47:03;;;;;;;2.88;0.47;;;21.90;98.40;;;;;;5062899;28;20017;-74
2022/02/05 05:49:46;;;;;;;0.90;0.30;;;21.80;99.10;;;;;;5052864;28;20047;-75
2022/02/05 05:52:13;;;;;;;2.20;0.20;;;21.80;99.10;;;;;;5063141;28;20028;-76
2022/02/05 05:54:42;;;;;;;2.35;1.00;;;21.90;98.20;;;;;;5071004;28;20024;-77
2022/02/05 05:57:09;;;;;;;1.50;0.20;;;22.10;97.80;;;;;;5069673;28;20063;-75
2022/02/05 05:59:40;;;;;;;2.33;0.30;;;22.30;97.20;;;;;;5071465;28;20024;-77
2022/02/05 06:02:08;;;;;;;3.33;0.38;;;22.40;97.60;;;;;;5068848;28;20458;-75
2022/02/05 06:04:36;;;;;;;6.65;1.15;;;22.60;96.70;;;;;;5065359;28;20036;-77
2022/02/05 06:07:04;;;;;;;2.25;0.40;;;23.00;96.90;;;;;;5061435;28;20032;-76
2022/02/05 06:19:40;;;;;;;7.82;1.00;;;23.90;94.60;;;;;;5061601;28;20050;-77
2022/02/05 06:22:07;;;;;;;3.30;0.52;;;24.10;94.60;;;;;;5057966;28;20090;-74
2022/02/05 06:24:35;;;;;;;1.85;0.80;;;24.50;94.40;;;;;;5069396;28;20032;-77
2022/02/05 06:27:03;;;;;;;3.20;0.35;;;24.70;93.90;;;;;;5054441;28;20339;-75
2022/02/05 06:29:30;;;;;;;3.65;1.58;;;24.40;93.20;;;;;;5058793;28;20100;-75
2022/02/05 06:31:57;;;;;;;1.52;0.75;;;24.10;93.30;;;;;;5069160;28;20025;-74
2022/02/05 06:34:25;;;;;;;0.80;0.40;;;23.90;93.60;;;;;;5070137;28;20384;-75
2022/02/05 06:36:53;;;;;;;8.02;1.05;;;23.70;93.70;;;;;;5068576;28;20419;-75
2022/02/05 06:39:22;;;;;;;5.53;0.80;;;23.70;94.30;;;;;;5070636;28;20028;-75
2022/02/05 06:41:50;;;;;;;2.88;0.38;;;24.00;93.90;;;;;;5065993;28;20098;-74
2022/02/05 06:44:18;;;;;;;4.25;1.02;;;24.10;93.20;;;;;;5053117;28;20257;-75
2022/02/05 06:46:46;;;;;;;2.20;0.63;;;24.00;93.10;;;;;;5063153;28;20064;-75
2022/02/05 06:49:14;;;;;;;2.95;0.70;;;23.80;93.30;;;;;;5070470;28;20379;-76
2022/02/05 06:51:41;;;;;;;2.92;0.45;;;23.70;93.10;;;;;;5068778;28;20086;-75
2022/02/05 06:54:08;;;;;;;4.65;1.40;;;23.60;93.40;;;;;;5069726;28;20544;-74
2022/02/05 06:56:35;;;;;;;4.25;0.75;;;23.50;93.40;;;;;;5063085;28;20039;-75
2022/02/05 06:59:03;;;;;;;3.60;0.68;;;23.50;93.80;;;;;;5058161;28;20095;-75
2022/02/05 07:01:30;;;;;;;4.95;1.15;;;23.50;93.90;;;;;;5058198;28;20036;-72
2022/02/05 07:03:58;;;;;;;3.05;0.70;;;23.40;93.70;;;;;;5069358;28;20154;-77
2022/02/05 07:06:25;;;;;;;5.93;0.65;;;23.40;93.80;;;;;;5067474;28;20028;-74
2022/02/05 07:08:52;;;;;;;2.47;0.63;;;23.40;94.00;;;;;;5058672;28;20036;-75
2022/02/05 07:11:21;;;;;;;7.38;0.60;;;23.40;94.00;;;;;;5056149;28;20027;-73
2022/02/05 07:13:50;;;;;;;2.10;0.52;;;23.40;94.30;;;;;;5069407;28;20093;-74
2022/02/05 07:16:24;;;;;;;4.47;0.80;;;23.40;94.30;;;;;;5062494;28;20021;-74
2022/02/05 07:19:10;;;;;;;4.07;0.55;;;23.40;94.00;;;;;;5059196;28;20044;-74
2022/02/05 07:21:43;;;;;;;5.95;2.00;;;23.30;94.50;;;;;;5066500;28;20063;-73
2022/02/05 07:29:26;;;;;;;5.78;0.60;;;22.40;98.10;;;;;;5050436;28;20044;-75
2022/02/05 07:31:56;;;;;;;8.85;1.15;;;22.10;99.00;;;;;;5061459;28;20037;-76
2022/02/05 07:34:26;;;;;;;8.30;0.60;;;21.90;99.80;;;;;;5049233;28;20155;-73
2022/02/05 07:37:02;;;;;;;1.88;0.95;;;21.80;99.80;;;;;;5053293;28;20036;-74
2022/02/05 07:39:31;;;;;;;5.28;0.70;;;21.80;99.90;;;;;;5059488;28;20568;-76
2022/02/05 07:42:01;;;;;;;4.07;0.32;;;21.80;99.90;;;;;;5071300;28;20495;-75
2022/02/05 07:44:29;;;;;;;3.95;0.40;;;21.80;97.80;;;;;;5064766;28;20062;-76
2022/02/05 07:46:59;;;;;;;6.70;1.15;;;21.80;97.30;;;;;;5069945;28;20036;-74
2022/02/05 07:49:30;;;;;;;3.97;0.45;;;21.80;96.90;;;;;;5073368;28;20526;-74
2022/02/05 07:51:57;;;;;;;4.65;0.60;;;21.90;96.90;;;;;;5058953;28;20214;-74
2022/02/05 07:54:24;;;;;;;6.65;1.73;;;21.90;96.90;;;;;;5073076;28;20032;-75
2022/02/05 07:56:52;;;;;;;4.20;0.90;;;22.00;96.60;;;;;;5070241;28;20033;-75
2022/02/05 07:59:20;;;;;;;2.17;0.85;;;22.00;95.80;;;;;;5071127;28;20082;-75
2022/02/05 08:01:47;;;;;;;1.88;0.82;;;22.00;95.90;;;;;;5070332;28;20196;-73
2022/02/05 08:04:15;;;;;;;4.15;1.08;;;21.90;95.80;;;;;;5053847;28;20105;-76
2022/02/05 08:06:45;;;;;;;5.47;2.08;;;22.00;96.10;;;;;;5061972;28;20499;-73
2022/02/05 08:09:28;;;;;;;1.63;0.77;;;22.00;96.10;;;;;;5059515;28;20052;-76
2022/02/05 08:12:03;;;;;;;4.65;1.02;;;22.00;95.80;;;;;;5057756;28;20113;-74
2022/02/05 08:14:34;;;;;;;;;;;22.00;95.50;;;;;;5066928;28;20069;-76
2022/02/05 08:17:05;;;;;;;4.50;0.90;;;22.00;95.80;;;;;;5066533;28;20007;-74
2022/02/05 08:19:33;;;;;;;5.78;1.23;;;21.90;95.60;;;;;;5072456;28;20016;-76
2022/02/05 08:22:00;;;;;;;4.88;0.70;;;21.90;95.70;;;;;;5071324;28;20033;-75
2022/02/05 08:24:27;;;;;;;2.80;0.50;;;21.90;95.00;;;;;;5067501;28;20017;-76
2022/02/05 08:26:55;;;;;;;4.20;0.70;;;21.90;95.10;;;;;;5056690;28;20040;-76
2022/02/05 08:29:22;;;;;;;2.80;0.90;;;21.90;95.30;;;;;;5069161;28;20032;-75
2022/02/05 08:31:49;;;;;;;3.47;0.63;;;21.80;95.40;;;;;;5069670;28;20029;-77
2022/02/05 08:34:17;;;;;;;3.20;0.40;;;21.80;95.30;;;;;;5073781;28;20475;-74
2022/02/05 08:36:49;;;;;;;5.72;0.88;;;21.80;95.30;;;;;;5069223;28;20394;-76
2022/02/05 08:39:17;;;;;;;4.60;0.73;;;21.80;95.30;;;;;;5072504;28;20036;-76
2022/02/05 08:41:45;;;;;;;6.28;1.05;;;21.80;95.40;;;;;;5065895;28;20055;-75
2022/02/05 08:44:13;;;;;;;5.68;0.90;;;21.70;95.30;;;;;;5072199;28;20089;-74
2022/02/05 08:46:41;;;;;;;7.95;0.90;;;21.70;95.40;;;;;;5070934;28;20017;-75
2022/02/05 08:49:09;;;;;;;5.07;0.40;;;21.70;95.60;;;;;;5073124;28;20036;-75
2022/02/05 08:51:37;;;;;;;3.65;0.30;;;21.60;95.50;;;;;;5072793;28;20024;-75
2022/02/05 08:54:04;;;;;;;5.07;0.57;;;21.60;95.60;;;;;;5066398;28;20082;-76
2022/02/05 08:56:32;;;;;;;3.55;0.80;;;21.60;95.60;;;;;;5057803;28;20593;-76
2022/02/05 08:58:59;;;;;;;8.05;1.27;;;21.50;95.40;;;;;;5067161;28;20028;-75
2022/02/05 09:01:31;;;;;;;3.28;0.60;;;21.40;95.50;;;;;;5065780;28;20036;-75
2022/02/05 09:04:14;;;;;;;7.95;1.35;;;21.40;95.50;;;;;;5058798;28;20113;-76
2022/02/05 09:06:47;;;;;;;5.55;0.90;;;21.40;95.30;;;;;;5060152;28;20096;-75
2022/02/05 09:09:28;;;;;;;4.45;0.85;;;21.40;95.20;;;;;;5070558;28;20546;-76
2022/02/05 09:14:48;;;;;;;2.15;0.40;;;21.40;95.40;;;;;;5062699;28;20047;-75
2022/02/05 09:17:16;;;;;;;3.25;0.57;;;21.40;95.60;;;;;;5052540;28;20037;-75
2022/02/05 09:19:43;;;;;;;3.75;0.70;;;21.30;95.20;;;;;;5056468;28;20052;-76
2022/02/05 09:22:11;;;;;;;7.47;1.15;;;21.30;94.80;;;;;;5066250;28;20028;-76
2022/02/05 09:24:39;;;;;;;5.93;0.60;;;21.30;94.90;;;;;;5055233;28;20387;-76
2022/02/05 09:27:11;;;;;;;5.80;0.98;;;21.20;95.20;;;;;;5063853;28;20059;-74
2022/02/05 09:29:46;;;;;;;7.03;0.57;;;21.20;94.70;;;;;;5057462;28;20021;-75
2022/02/05 09:32:14;;;;;;;3.20;0.65;;;21.20;95.00;;;;;;5056763;28;20025;-75
2022/02/05 09:34:41;;;;;;;2.83;0.73;;;21.20;95.00;;;;;;5052753;28;20083;-74
2022/02/05 09:37:08;;;;;;;6.68;1.10;;;21.10;95.00;;;;;;5065195;28;20076;-76
2022/02/05 09:39:35;;;;;;;9.50;1.45;;;21.10;94.90;;;;;;5058914;28;20029;-76
2022/02/05 09:42:04;;;;;;;5.45;1.17;;;21.10;95.10;;;;;;5063488;28;20056;-75
2022/02/05 09:44:31;;;;;;;2.25;0.90;;;21.10;95.00;;;;;;5068688;28;20024;-75
2022/02/05 09:46:59;;;;;;;5.05;0.55;;;21.10;95.10;;;;;;5064366;28;20072;-74
2022/02/05 09:49:27;;;;;;;6.07;1.15;;;21.10;94.90;;;;;;5055595;28;20029;-75
2022/02/05 09:52:23;;;;;;;2.17;0.88;;;21.10;94.90;;;;;;5054634;28;20044;-75
2022/02/05 09:54:45;;;;;;;4.47;0.63;;;21.10;94.70;;;;;;5061886;28;20037;-75
2022/02/05 09:57:12;;;;;;;3.33;0.65;;;21.00;95.10;;;;;;5050488;28;20126;-75
2022/02/05 09:59:46;;;;;;;5.10;0.60;;;21.00;94.90;;;;;;5058742;28;20690;-75
2022/02/05 10:02:24;;;;;;;2.50;0.88;;;21.00;94.90;;;;;;5051419;28;20068;-76
2022/02/05 10:05:01;;;;;;;3.05;0.50;;;21.00;95.10;;;;;;5053290;28;20076;-75
2022/02/05 10:07:29;;;;;;;2.58;0.50;;;20.90;95.10;;;;;;5060854;28;20032;-75
2022/02/05 10:09:59;;;;;;;4.05;0.40;;;20.90;95.00;;;;;;5056393;28;20040;-74
2022/02/05 10:12:30;;;;;;;3.72;0.82;;;20.80;95.20;;;;;;5055541;28;20035;-74
2022/02/05 10:15:00;;;;;;;1.38;0.40;;;20.90;95.40;;;;;;5054399;28;20029;-74
2022/02/05 10:17:43;;;;;;;0.75;0.63;;;20.90;95.60;;;;;;5065382;28;20556;-75
2022/02/05 10:20:13;;;;;;;3.60;1.08;;;20.80;95.50;;;;;;5062696;28;20169;-75
2022/02/05 10:22:46;;;;;;;4.72;0.70;;;20.80;95.40;;;;;;5065658;28;20643;-74
2022/02/05 10:25:18;;;;;;;1.77;0.30;;;20.70;95.40;;;;;;5062032;28;20525;-75
2022/02/05 10:27:47;;;;;;;1.23;0.30;;;20.70;95.40;;;;;;5055679;28;20029;-75
2022/02/05 10:30:34;;;;;;;2.03;0.30;;;20.70;95.70;;;;;;5050879;28;20032;-74
2022/02/05 10:33:14;;;;;;;2.92;0.38;;;20.60;96.00;;;;;;5058608;28;20163;-75
2022/02/05 10:35:51;;;;;;;4.80;0.70;;;20.50;96.40;;;;;;5058939;28;20021;-80
2022/02/05 10:43:53;;;;;;;2.97;0.88;;;20.40;96.80;;;;;;5040998;28;20044;-75
2022/02/05 10:46:22;;;;;;;3.38;0.43;;;20.40;96.90;;;;;;5051936;28;20021;-75
2022/02/05 10:48:49;;;;;;;4.03;0.63;;;20.40;97.00;;;;;;5064443;28;20033;-76
2022/02/05 10:51:16;;;;;;;6.43;1.05;;;20.50;96.80;;;;;;5049715;28;20025;-76
2022/02/05 10:53:50;;;;;;;1.08;0.38;;;20.50;97.00;;;;;;5051565;28;20043;-75
2022/02/05 10:56:31;;;;;;;1.77;0.52;;;20.50;96.60;;;;;;5049008;28;20067;-75
2022/02/05 10:59:29;;;;;;;6.07;0.75;;;20.50;96.60;;;;;;5053813;28;20799;-75
2022/02/05 11:07:32;;;;;;;4.80;0.68;;;20.50;97.10;;;;;;5067461;28;20478;-75
2022/02/05 11:10:00;;;;;;;10.25;1.05;;;20.50;97.30;;;;;;5061638;28;20041;-72
2022/02/05 11:20:38;;;;;;;2.30;0.70;;;20.50;97.90;;;;;;5069616;28;20091;-74
2022/02/05 11:23:08;;;;;;;1.90;0.40;;;20.50;97.80;;;;;;5059496;28;20046;-74
2022/02/05 11:25:39;;;;;;;3.33;0.68;;;20.50;97.70;;;;;;5065325;28;20098;-74
2022/02/05 11:28:07;;;;;;;3.60;0.80;;;20.50;97.70;;;;;;5064367;28;20545;-76
2022/02/05 11:30:35;;;;;;;4.63;0.73;;;20.50;97.70;;;;;;5059447;28;20036;-76
2022/02/05 11:33:07;;;;;;;2.95;0.57;;;20.40;97.60;;;;;;5051493;28;20032;-76
2022/02/05 11:36:39;;;;;;;4.70;0.88;;;20.40;97.80;;;;;;5067995;28;20029;-76
2022/02/05 11:38:42;;;;;;;1.17;0.30;;;20.30;98.00;;;;;;5048295;28;20029;-75
2022/02/05 11:41:24;;;;;;;1.45;0.28;;;20.20;98.40;;;;;;5060385;28;20072;-77
2022/02/05 11:44:18;;;;;;;2.70;0.32;;;20.10;98.50;;;;;;5065372;28;20448;-76
2022/02/05 11:47:12;;;;;;;7.10;0.73;;;20.10;98.50;;;;;;5057438;28;20479;-76
2022/02/05 11:49:57;;;;;;;6.38;0.70;;;20.10;98.40;;;;;;5060131;28;20508;-76
2022/02/05 11:52:43;;;;;;;7.27;0.43;;;20.10;98.40;;;;;;5051534;28;20041;-76
2022/02/05 11:55:34;;;;;;;2.58;0.80;;;20.10;98.40;;;;;;5062268;28;20047;-76
2022/02/05 11:58:05;;;;;;;6.47;0.40;;;20.00;98.50;;;;;;5053476;28;20127;-76
2022/02/05 12:00:35;;;;;;;2.38;0.50;;;20.00;98.70;;;;;;5056033;28;20078;-76
2022/02/05 12:03:37;;;;;;;1.90;0.38;;;19.90;98.70;;;;;;5056655;28;20399;-75
2022/02/05 12:06:11;;;;;;;2.80;0.50;;;19.80;98.80;;;;;;5060481;28;20037;-76
2022/02/05 12:08:42;;;;;;;3.58;0.30;;;19.70;99.10;;;;;;5062803;28;20130;-76
2022/02/05 12:11:29;;;;;;;1.55;0.40;;;19.70;99.40;;;;;;5050479;28;20040;-74
2022/02/05 12:14:20;;;;;;;3.35;0.98;;;19.50;99.70;;;;;;5048501;28;20025;-75
2022/02/05 12:17:15;;;;;;;4.20;0.30;;;19.40;99.90;;;;;;5050096;28;20044;-76
2022/02/05 12:20:06;;;;;;;4.10;0.32;;;19.30;99.90;;;;;;5060090;28;20029;-74
2022/02/05 12:23:09;;;;;;;4.55;0.68;;;19.30;99.90;;;;;;5053555;28;20078;-76
2022/02/05 12:26:08;;;;;;;6.68;1.42;;;19.30;99.90;;;;;;5053080;28;20090;-75
2022/02/05 12:28:39;;;;;;;0.80;0.40;;;19.20;99.90;;;;;;5052167;28;20127;-74
2022/02/05 12:31:30;;;;;;;5.53;0.85;;;19.20;99.90;;;;;;5055556;28;20187;-74
2022/02/05 12:34:07;;;;;;;2.72;0.52;;;19.10;99.90;;;;;;5058773;28;20024;-74
2022/02/05 12:36:38;;;;;;;3.65;0.40;;;19.00;99.90;;;;;;5068803;28;20090;-74
2022/02/05 12:39:12;;;;;;;4.05;0.95;;;19.00;99.90;;;;;;5069383;28;20560;-75
2022/02/05 12:41:49;;;;;;;5.53;0.70;;;18.90;99.90;;;;;;5068773;28;20403;-75
2022/02/05 12:44:21;;;;;;;4.57;0.68;;;18.80;99.90;;;;;;5073030;28;20108;-75
2022/02/05 12:47:04;;;;;;;4.93;0.60;;;18.80;99.90;;;;;;5066176;28;20059;-75
2022/02/05 12:52:22;;;;;;;3.10;0.90;;;18.80;99.90;;;;;;5063644;28;20066;-75
2022/02/05 12:54:57;;;;;;;3.90;0.80;;;18.80;99.90;;;;;;5052262;28;20028;-76
2022/02/05 12:57:25;;;;;;;2.17;0.65;;;18.80;99.90;;;;;;5058113;28;20076;-75
2022/02/05 12:59:52;;;;;;;2.35;0.40;;;18.70;99.90;;;;;;5068182;28;20393;-76
2022/02/05 13:02:23;;;;;;;2.00;0.60;;;18.70;99.90;;;;;;5069467;28;20053;-74
2022/02/05 13:04:55;;;;;;;7.05;0.63;;;18.60;99.90;;;;;;5061163;28;20048;-75
2022/02/05 13:07:24;;;;;;;0.75;0.38;;;18.60;99.90;;;;;;5055774;28;20052;-75
2022/02/05 13:10:06;;;;;;;4.88;0.45;;;18.60;99.90;;;;;;5055584;28;20485;-74
2022/02/05 13:12:37;;;;;;;6.65;0.80;;;18.50;99.90;;;;;;5061246;28;20154;-73
2022/02/05 13:15:28;;;;;;;2.13;1.00;;;18.50;99.90;;;;;;5054042;28;20492;-73
2022/02/05 13:26:27;;;;;;;5.32;0.60;;;18.40;99.90;;;;;;5040624;28;20029;-75
2022/02/05 13:29:19;;;;;;;5.75;0.50;;;18.40;99.90;;;;;;5063061;28;20036;-75
2022/02/05 13:34:37;;;;;;;3.20;0.50;;;18.40;99.90;;;;;;5066305;28;20035;-75
2022/02/05 13:37:20;;;;;;;6.60;0.57;;;18.40;99.90;;;;;;5062227;28;20140;-76
2022/02/05 13:40:01;;;;;;;8.15;1.23;;;18.30;99.90;;;;;;5067657;28;20028;-75
2022/02/05 13:42:34;;;;;;;6.63;0.90;;;18.30;99.90;;;;;;5068834;28;20079;-75
2022/02/05 13:45:24;;;;;;;8.48;0.90;;;18.20;99.90;;;;;;5059253;28;20037;-74
2022/02/05 13:47:53;;;;;;;3.58;0.40;;;18.20;99.90;;;;;;5054777;28;20021;-74
2022/02/05 13:50:23;;;;;;;2.83;0.55;;;18.10;99.90;;;;;;5062047;28;20032;-74
2022/02/05 13:53:02;;;;;;;2.25;1.02;;;18.00;99.90;;;;;;5068644;28;20021;-73
2022/02/05 13:55:40;;;;;;;2.90;0.40;;;18.00;99.90;;;;;;5054524;28;20025;-75
2022/02/05 13:58:09;;;;;;;4.10;0.60;;;17.90;99.90;;;;;;5065774;28;20036;-73
2022/02/05 14:01:03;;;;;;;6.28;1.15;;;17.90;99.90;;;;;;5070213;28;20387;-73
2022/02/05 14:03:33;;;;;;;2.80;0.50;;;17.90;99.90;;;;;;5068647;28;20106;-74
2022/02/05 14:06:14;;;;;;;4.00;0.50;;;17.90;99.90;;;;;;5069787;28;20104;-74
2022/02/05 14:08:55;;;;;;;4.00;0.40;;;17.90;99.90;;;;;;5069777;28;20103;-73
2022/02/05 14:11:31;;;;;;;4.22;0.63;;;17.90;99.90;;;;;;5055662;28;20016;-75
2022/02/05 14:14:04;;;;;;;3.20;0.77;;;18.00;99.90;;;;;;5069066;28;20032;-75
2022/02/05 14:16:37;;;;;;;4.25;0.68;;;18.10;99.90;;;;;;5052853;28;20457;-75
2022/02/05 14:19:06;;;;;;;5.30;0.88;;;18.10;99.90;;;;;;5053070;28;20037;-75
2022/02/05 14:21:47;;;;;;;4.65;1.02;;;18.10;99.90;;;;;;5051644;28;20039;-75
2022/02/05 14:24:17;;;;;;;3.65;0.90;;;18.20;99.90;;;;;;5056857;28;20438;-75
2022/02/05 14:26:56;;;;;;;3.95;0.50;;;18.20;99.90;;;;;;5054477;28;20024;-75
2022/02/05 14:29:23;;;;;;;1.45;0.32;;;18.30;99.90;;;;;;5070546;28;20036;-75
2022/02/05 14:31:58;;;;;;;4.18;1.05;;;18.30;99.90;;;;;;5065501;28;20402;-74
2022/02/05 14:34:45;;;;;;;3.70;0.57;;;18.30;99.90;;;;;;5064017;28;20035;-74
2022/02/05 14:42:39;;;;;;;3.13;0.40;;;18.30;99.90;;;;;;5068327;28;20067;-75
2022/02/05 14:45:07;;;;;;;5.53;0.82;;;18.30;99.90;;;;;;5064107;28;20037;-76
2022/02/05 14:47:34;;;;;;;7.57;0.70;;;18.30;99.90;;;;;;5066256;28;20038;-77
2022/02/05 14:50:05;;;;;;;4.22;0.80;;;18.30;99.90;;;;;;5058909;28;20479;-76
2022/02/05 14:52:32;;;;;;;6.35;2.08;;;18.30;99.90;;;;;;5065937;28;20060;-76
2022/02/05 14:55:00;;;;;;;5.65;1.20;;;18.30;99.90;;;;;;5054726;28;20036;-76
2022/02/05 14:57:27;;;;;;;3.33;0.45;;;18.20;99.90;;;;;;5068398;28;20044;-76
2022/02/05 14:59:54;;;;;;;5.07;0.60;;;18.20;99.90;;;;;;5066673;28;20033;-77
2022/02/05 15:02:22;;;;;;;3.25;0.52;;;18.10;99.90;;;;;;5055473;28;20028;-76
2022/02/05 15:04:49;;;;;;;2.65;0.60;;;18.10;99.90;;;;;;5061817;28;20138;-77
2022/02/05 15:07:19;;;;;;;4.63;0.63;;;18.10;99.90;;;;;;5050151;28;20090;-76
2022/02/05 15:09:46;;;;;;;2.75;0.50;;;18.10;99.90;;;;;;5067740;28;20040;-77
2022/02/05 15:12:14;;;;;;;4.78;0.60;;;18.00;99.90;;;;;;5067030;28;20032;-76
2022/02/05 15:14:41;;;;;;;3.63;1.02;;;18.10;99.90;;;;;;5056069;28;20056;-77
2022/02/05 15:17:08;;;;;;;5.43;0.57;;;18.00;99.90;;;;;;5066355;28;20033;-76
2022/02/05 15:19:36;;;;;;;6.25;1.15;;;18.00;99.90;;;;;;5081142;28;20105;-77
2022/02/05 15:22:03;;;;;;;5.82;0.60;;;18.00;99.90;;;;;;5061378;28;20471;-76
2022/02/05 15:24:30;;;;;;;7.60;0.60;;;18.00;99.90;;;;;;5063559;28;20062;-77
2022/02/05 15:26:58;;;;;;;6.05;1.13;;;17.90;99.90;;;;;;5062485;28;20024;-76
2022/02/05 15:29:25;;;;;;;1.85;0.40;;;17.90;99.90;;;;;;5050307;28;20039;-76
2022/02/05 15:31:53;;;;;;;6.20;0.75;;;17.80;99.90;;;;;;5059911;28;20483;-77
2022/02/05 15:34:20;;;;;;;2.85;0.60;;;17.80;99.90;;;;;;5067125;28;20032;-77
2022/02/05 15:36:59;;;;;;;3.40;0.50;;;17.70;99.90;;;;;;5067310;28;20037;-74
2022/02/05 15:45:02;;;;;;;1.00;0.45;;;17.60;99.90;;;;;;5061792;28;20071;-75
2022/02/05 15:47:30;;;;;;;4.00;0.93;;;17.60;99.90;;;;;;5062160;28;20033;-75
2022/02/05 15:49:58;;;;;;;9.75;0.80;;;17.60;99.90;;;;;;5067385;28;20500;-74
2022/02/05 15:52:25;;;;;;;2.67;0.88;;;17.60;99.90;;;;;;5067295;28;20068;-75
2022/02/05 15:54:54;;;;;;;7.07;0.77;;;17.60;99.90;;;;;;5055669;28;20024;-75
2022/02/05 15:57:35;;;;;;;2.72;0.98;;;17.60;99.90;;;;;;5051477;28;20172;-74
2022/02/05 16:02:46;;;;;;;7.35;0.90;;;17.70;99.90;;;;;;5064512;28;20487;-74
2022/02/05 16:05:13;;;;;;;5.10;1.05;;;17.70;99.90;;;;;;5062983;28;20041;-75
2022/02/05 16:07:40;;;;;;;4.47;1.15;;;17.80;99.90;;;;;;5064005;28;20032;-75
2022/02/05 16:10:08;;;;;;;5.15;0.73;;;17.80;99.90;;;;;;5072163;28;20074;-75
2022/02/05 16:12:35;;;;;;;7.43;0.65;;;17.80;99.90;;;;;;5062682;28;20024;-75
2022/02/05 16:15:03;;;;;;;5.13;0.68;;;17.90;99.90;;;;;;5069658;28;20428;-75
2022/02/05 16:17:30;;;;;;;2.50;0.65;;;17.90;99.90;;;;;;5062148;28;20518;-75
2022/02/05 16:19:57;;;;;;;6.68;1.67;;;17.90;99.90;;;;;;5053607;28;20033;-75